Time;durP1;ratioP1;P1;durP2;ratioP2;P2;SDS_P1;SDS_P2;PMS_P1;PMS_P2;Temp;Humidity;BMP_temperature;BMP_pressure;BME280_temperature;BME280_humidity;BME280_pressure;Samples;Min_cycle;Max_cycle;Signal;HPM_P1;HPM_P2
2023/02/22 00:01:34;;;;;;;36.45;23.17;;;9.90;99.90;;;;;;5029738;28;20033;-63
2023/02/22 00:04:04;;;;;;;42.85;24.10;;;9.80;99.90;;;;;;5032946;28;20079;-61
2023/02/22 00:06:30;;;;;;;48.17;24.35;;;9.90;99.90;;;;;;5049824;28;20036;-62
2023/02/22 00:08:56;;;;;;;44.20;24.57;;;9.90;99.90;;;;;;5050120;28;20071;-62
2023/02/22 00:11:22;;;;;;;42.05;24.30;;;10.00;99.90;;;;;;5049905;28;20062;-64
2023/02/22 00:13:49;;;;;;;48.42;25.52;;;10.00;99.90;;;;;;5034834;28;20124;-62
2023/02/22 00:16:16;;;;;;;;;;;9.90;99.90;;;;;;5029985;28;20137;-65
2023/02/22 00:18:43;;;;;;;39.53;23.20;;;10.00;99.90;;;;;;5029799;28;19916;-66
2023/02/22 00:21:10;;;;;;;46.30;25.00;;;10.00;99.90;;;;;;5030183;28;20044;-66
2023/02/22 00:23:38;;;;;;;46.30;25.00;;;9.70;99.90;;;;;;5030210;28;20025;-67
2023/02/22 00:26:08;;;;;;;48.25;25.67;;;9.80;99.90;;;;;;5029682;28;20032;-67
2023/02/22 00:28:37;;;;;;;45.00;26.00;;;9.80;99.90;;;;;;5030097;28;20026;-67
2023/02/22 00:31:05;;;;;;;46.17;25.60;;;9.90;99.90;;;;;;5045484;28;20124;-65
2023/02/22 00:33:31;;;;;;;45.65;26.13;;;9.80;99.90;;;;;;5049468;28;20410;-66
2023/02/22 00:35:57;;;;;;;45.83;25.95;;;9.90;99.90;;;;;;5049152;28;20053;-65
2023/02/22 00:38:23;;;;;;;48.75;25.98;;;10.00;99.90;;;;;;5049644;28;20109;-67
2023/02/22 00:40:49;;;;;;;45.97;24.70;;;9.90;99.90;;;;;;5049539;28;20060;-65
2023/02/22 00:43:14;;;;;;;43.17;26.30;;;9.80;99.90;;;;;;5048705;28;20065;-66
2023/02/22 00:45:41;;;;;;;49.83;25.13;;;9.90;99.90;;;;;;5049231;28;20036;-65
2023/02/22 00:48:07;;;;;;;51.67;26.10;;;9.80;99.90;;;;;;5047273;28;20810;-66
2023/02/22 00:50:34;;;;;;;45.40;24.80;;;9.70;99.90;;;;;;5045999;28;20037;-67
2023/02/22 00:53:02;;;;;;;46.95;25.65;;;9.70;99.90;;;;;;5028874;28;20014;-65
2023/02/22 00:55:31;;;;;;;41.95;25.02;;;9.60;99.90;;;;;;5028880;28;20042;-63
2023/02/22 00:57:57;;;;;;;46.15;26.38;;;9.70;99.90;;;;;;5029162;28;20049;-63
2023/02/22 01:00:30;;;;;;;;;;;9.60;99.90;;;;;;5030338;28;20026;-65
2023/02/22 01:02:56;;;;;;;46.25;26.20;;;9.70;99.90;;;;;;5029470;28;19905;-65
2023/02/22 01:05:25;;;;;;;55.05;27.00;;;9.80;99.90;;;;;;5029669;28;20036;-64
2023/02/22 01:07:52;;;;;;;49.47;27.30;;;9.70;99.90;;;;;;5029739;28;20075;-66
2023/02/22 01:10:19;;;;;;;44.72;25.23;;;9.70;99.90;;;;;;5029540;28;20025;-65
2023/02/22 01:12:46;;;;;;;44.47;27.20;;;9.70;99.90;;;;;;5029459;28;20033;-66
2023/02/22 01:15:13;;;;;;;51.88;28.17;;;9.70;99.90;;;;;;5028590;28;20482;-61
2023/02/22 01:17:40;;;;;;;50.33;26.35;;;9.70;99.90;;;;;;5029559;28;20045;-62
2023/02/22 01:20:13;;;;;;;;;;;9.80;99.90;;;;;;5029927;28;20029;-62
2023/02/22 01:22:41;;;;;;;43.50;26.23;;;9.90;99.90;;;;;;5029090;28;19909;-62
2023/02/22 01:25:07;;;;;;;46.03;26.88;;;9.90;99.90;;;;;;5027513;28;20033;-66
2023/02/22 01:27:34;;;;;;;;;;;9.80;99.90;;;;;;5029102;28;20033;-62
2023/02/22 01:30:00;;;;;;;50.72;26.52;;;9.80;99.90;;;;;;5028716;28;19930;-66
2023/02/22 01:32:26;;;;;;;48.45;27.17;;;9.80;99.90;;;;;;5028951;28;20033;-67
2023/02/22 01:34:55;;;;;;;51.28;27.42;;;9.70;99.90;;;;;;5028789;28;20386;-62
2023/02/22 01:37:20;;;;;;;44.40;26.70;;;9.70;99.90;;;;;;5029294;28;20109;-63
2023/02/22 01:39:46;;;;;;;57.67;27.50;;;9.70;99.90;;;;;;5028983;28;20464;-62
2023/02/22 01:42:11;;;;;;;49.73;26.13;;;9.60;99.90;;;;;;5028650;28;20033;-66
2023/02/22 01:44:40;;;;;;;45.27;26.50;;;9.80;99.90;;;;;;5028670;28;20037;-66
2023/02/22 01:47:07;;;;;;;48.92;27.42;;;9.80;99.90;;;;;;5028819;28;20040;-65
2023/02/22 01:49:46;;;;;;;50.97;27.95;;;9.70;99.90;;;;;;5028493;28;20030;-64
2023/02/22 01:52:16;;;;;;;49.85;26.90;;;9.60;99.90;;;;;;5027222;28;20176;-66
2023/02/22 01:54:47;;;;;;;47.65;26.95;;;9.40;99.90;;;;;;5027945;28;20432;-64
2023/02/22 01:57:28;;;;;;;46.28;26.02;;;9.00;99.90;;;;;;5028512;28;20037;-66
2023/02/22 02:00:00;;;;;;;45.63;26.92;;;8.90;99.90;;;;;;5028137;28;20117;-66
2023/02/22 02:02:27;;;;;;;52.92;26.77;;;8.70;99.90;;;;;;5027887;28;20452;-66
2023/02/22 02:04:55;;;;;;;53.28;26.35;;;8.70;99.90;;;;;;5027935;28;20385;-67
2023/02/22 02:07:22;;;;;;;53.58;27.48;;;8.60;99.90;;;;;;5027933;28;20069;-67
2023/02/22 02:09:58;;;;;;;50.03;26.67;;;8.60;99.90;;;;;;5028035;28;20021;-61
2023/02/22 02:12:25;;;;;;;46.88;27.95;;;8.30;99.90;;;;;;5027791;28;20025;-63
2023/02/22 02:14:50;;;;;;;44.38;28.02;;;8.30;99.90;;;;;;5027965;28;20045;-61
2023/02/22 02:17:20;;;;;;;47.57;28.17;;;8.20;99.90;;;;;;5027691;28;20560;-65
2023/02/22 02:20:07;;;;;;;49.65;27.77;;;8.10;99.90;;;;;;5027472;28;20037;-61
2023/02/22 02:23:17;;;;;;;48.60;26.88;;;8.00;99.90;;;;;;5027059;28;20438;-62
2023/02/22 02:26:19;;;;;;;48.97;28.33;;;7.80;99.90;;;;;;5017260;28;20038;-66
2023/02/22 02:29:20;;;;;;;48.47;26.92;;;7.80;99.90;;;;;;5020239;28;20064;-67
2023/02/22 02:32:23;;;;;;;53.58;29.23;;;7.80;99.90;;;;;;5025413;28;20615;-66
2023/02/22 02:35:10;;;;;;;54.65;27.75;;;7.70;99.90;;;;;;5023094;28;20390;-67
2023/02/22 02:37:47;;;;;;;52.47;28.92;;;7.80;99.90;;;;;;5016338;28;21118;-67
2023/02/22 02:40:40;;;;;;;48.33;26.63;;;7.60;99.90;;;;;;5025516;28;20022;-65
2023/02/22 02:43:32;;;;;;;58.20;29.80;;;7.60;99.90;;;;;;5023157;28;20021;-63
2023/02/22 02:46:21;;;;;;;48.08;27.15;;;7.90;99.90;;;;;;5008171;28;20065;-66
2023/02/22 02:48:55;;;;;;;58.83;29.77;;;7.80;99.90;;;;;;5024954;28;20087;-63
2023/02/22 02:51:27;;;;;;;54.75;27.85;;;8.20;99.90;;;;;;5024251;28;20033;-65
2023/02/22 02:53:53;;;;;;;52.67;27.70;;;8.30;99.90;;;;;;5021999;28;20060;-64
2023/02/22 02:56:19;;;;;;;56.65;28.40;;;8.60;99.90;;;;;;5017402;28;20073;-65
2023/02/22 02:58:48;;;;;;;62.67;28.45;;;8.30;99.90;;;;;;5030244;28;20108;-62
2023/02/22 03:01:25;;;;;;;48.72;27.27;;;8.00;99.90;;;;;;5021583;28;20037;-62
2023/02/22 03:03:57;;;;;;;49.78;27.20;;;8.20;99.90;;;;;;5022538;28;20736;-64
2023/02/22 03:07:00;;;;;;;51.05;27.42;;;8.00;99.90;;;;;;5025036;28;20017;-64
2023/02/22 03:09:42;;;;;;;53.05;28.27;;;7.90;99.90;;;;;;5026104;28;20129;-63
2023/02/22 03:12:47;;;;;;;47.35;27.60;;;7.80;99.90;;;;;;5026521;28;20029;-66
2023/02/22 03:15:20;;;;;;;49.75;28.17;;;7.70;99.90;;;;;;5023191;28;20153;-64
2023/02/22 03:18:16;;;;;;;49.67;26.83;;;7.60;99.90;;;;;;5025761;28;20029;-62
2023/02/22 03:20:57;;;;;;;56.60;28.42;;;7.60;99.90;;;;;;5023575;28;20076;-64
2023/02/22 03:23:37;;;;;;;50.55;27.05;;;7.60;99.90;;;;;;5025218;28;20040;-64
2023/02/22 03:26:26;;;;;;;50.08;28.55;;;7.50;99.90;;;;;;5025893;28;20042;-61
2023/02/22 03:28:54;;;;;;;59.10;29.05;;;7.40;99.90;;;;;;5025757;28;20033;-62
2023/02/22 03:31:27;;;;;;;52.38;28.75;;;7.50;99.90;;;;;;5025483;28;20034;-65
2023/02/22 03:33:58;;;;;;;47.83;27.05;;;7.40;99.90;;;;;;5025513;28;20040;-65
2023/02/22 03:36:31;;;;;;;49.20;26.88;;;7.40;99.90;;;;;;5025915;28;20037;-62
2023/02/22 03:38:59;;;;;;;52.67;27.83;;;7.50;99.90;;;;;;5025804;28;20038;-63
2023/02/22 03:41:26;;;;;;;53.63;29.20;;;7.50;99.90;;;;;;5017132;28;20100;-66
2023/02/22 03:44:04;;;;;;;52.35;28.65;;;7.60;99.90;;;;;;5023835;28;20051;-65
2023/02/22 03:46:31;;;;;;;54.95;28.70;;;7.60;99.90;;;;;;5025548;28;20026;-66
2023/02/22 03:49:11;;;;;;;46.95;26.33;;;7.50;99.90;;;;;;5021655;28;20518;-66
2023/02/22 03:51:38;;;;;;;58.20;28.55;;;7.50;99.90;;;;;;5021941;28;20688;-66
2023/02/22 03:54:05;;;;;;;52.97;28.02;;;7.40;99.90;;;;;;5025830;28;20037;-65
2023/02/22 03:56:46;;;;;;;51.28;28.15;;;7.50;99.90;;;;;;5025049;28;20136;-66
2023/02/22 03:59:12;;;;;;;52.85;28.70;;;7.40;99.90;;;;;;5024846;28;20073;-65
2023/02/22 04:01:37;;;;;;;53.90;29.10;;;7.30;99.90;;;;;;5024789;28;20061;-66
2023/02/22 04:04:03;;;;;;;53.58;28.65;;;7.30;99.90;;;;;;5025156;28;20482;-66
2023/02/22 04:06:29;;;;;;;56.45;28.33;;;7.10;99.90;;;;;;5025327;28;20028;-66
2023/02/22 04:08:55;;;;;;;57.17;29.33;;;7.10;99.90;;;;;;5025294;28;20092;-66
2023/02/22 04:11:21;;;;;;;49.67;27.33;;;7.00;99.90;;;;;;5024284;28;20827;-65
2023/02/22 04:13:47;;;;;;;48.97;28.85;;;7.00;99.90;;;;;;5025282;28;20541;-64
2023/02/22 04:16:13;;;;;;;59.23;30.47;;;7.00;99.90;;;;;;5025331;28;20037;-68
2023/02/22 04:18:38;;;;;;;60.90;29.80;;;6.80;99.90;;;;;;5028993;28;20029;-66
2023/02/22 04:21:04;;;;;;;54.27;28.30;;;6.80;99.90;;;;;;5029098;28;20393;-66
2023/02/22 04:23:30;;;;;;;58.83;28.80;;;6.80;99.90;;;;;;5027856;28;20033;-68
2023/02/22 04:25:55;;;;;;;57.17;29.43;;;6.80;99.90;;;;;;5028651;28;20323;-63
2023/02/22 04:28:21;;;;;;;56.90;28.20;;;6.90;99.90;;;;;;5028462;28;20513;-62
2023/02/22 04:30:46;;;;;;;51.97;29.17;;;6.90;99.90;;;;;;5028805;28;20095;-61
2023/02/22 04:33:12;;;;;;;55.80;30.80;;;6.80;99.90;;;;;;5028915;28;20048;-66
2023/02/22 04:35:38;;;;;;;54.83;31.17;;;6.80;99.90;;;;;;5028624;28;20541;-68
2023/02/22 04:38:04;;;;;;;57.38;30.23;;;6.80;99.90;;;;;;5028572;28;20037;-67
2023/02/22 04:40:30;;;;;;;59.78;29.58;;;6.80;99.90;;;;;;5028590;28;20029;-67
2023/02/22 04:42:55;;;;;;;49.40;29.95;;;6.70;99.90;;;;;;5028724;28;20056;-68
2023/02/22 04:45:21;;;;;;;52.80;28.27;;;6.60;99.90;;;;;;5028930;28;20197;-67
2023/02/22 04:47:47;;;;;;;62.13;29.53;;;6.70;99.90;;;;;;5028645;28;20288;-66
2023/02/22 04:50:13;;;;;;;55.83;29.50;;;6.70;99.90;;;;;;5027136;28;20036;-66
2023/02/22 04:52:39;;;;;;;54.17;29.90;;;6.60;99.90;;;;;;5032891;28;20075;-65
2023/02/22 04:55:05;;;;;;;57.83;30.15;;;6.50;99.90;;;;;;5032412;28;20025;-62
2023/02/22 04:57:31;;;;;;;64.63;30.63;;;6.40;99.90;;;;;;5029236;28;20041;-62
2023/02/22 04:59:56;;;;;;;55.40;29.90;;;6.50;99.90;;;;;;5027442;28;20038;-62
2023/02/22 05:02:22;;;;;;;50.40;28.17;;;6.60;99.90;;;;;;5032360;28;20044;-65
2023/02/22 05:04:48;;;;;;;53.20;28.50;;;6.60;99.90;;;;;;5028878;28;20477;-66
2023/02/22 05:07:13;;;;;;;59.00;30.83;;;6.50;99.90;;;;;;5027808;28;20367;-65
2023/02/22 05:09:39;;;;;;;50.30;28.53;;;6.30;99.90;;;;;;5025050;28;20025;-63
2023/02/22 05:12:05;;;;;;;55.00;28.47;;;6.40;99.90;;;;;;5027480;28;20456;-62
2023/02/22 05:14:31;;;;;;;51.78;29.55;;;6.40;99.90;;;;;;5029132;28;20100;-65
2023/02/22 05:16:56;;;;;;;56.45;29.70;;;6.40;99.90;;;;;;5029917;28;20560;-62
2023/02/22 05:19:23;;;;;;;60.70;30.45;;;6.30;99.90;;;;;;5027686;28;20022;-63
2023/02/22 05:21:49;;;;;;;57.95;30.48;;;6.30;99.90;;;;;;5030429;28;20040;-64
2023/02/22 05:24:14;;;;;;;62.78;31.02;;;6.40;99.90;;;;;;5026136;28;20386;-65
2023/02/22 05:26:42;;;;;;;60.03;31.80;;;6.40;99.90;;;;;;5030556;28;20060;-61
2023/02/22 05:29:08;;;;;;;64.32;31.05;;;6.20;99.90;;;;;;5024837;28;21291;-63
2023/02/22 05:31:33;;;;;;;64.27;31.73;;;6.20;99.90;;;;;;5028977;28;20116;-63
2023/02/22 05:33:59;;;;;;;56.67;30.93;;;6.30;99.90;;;;;;5028476;28;20120;-62
2023/02/22 05:36:25;;;;;;;64.93;30.93;;;6.30;99.90;;;;;;5027092;28;20045;-61
2023/02/22 05:38:50;;;;;;;76.70;31.90;;;6.30;99.90;;;;;;5026485;28;20037;-62
2023/02/22 05:41:16;;;;;;;57.97;30.40;;;6.30;99.90;;;;;;5026034;28;20482;-67
2023/02/22 05:43:41;;;;;;;68.63;30.67;;;6.40;99.90;;;;;;5026200;28;20060;-66
2023/02/22 05:46:07;;;;;;;60.03;30.87;;;6.40;99.90;;;;;;5027268;28;20028;-61
2023/02/22 05:48:33;;;;;;;58.93;31.20;;;6.40;99.90;;;;;;5028774;28;20104;-63
2023/02/22 05:50:59;;;;;;;52.13;28.88;;;6.40;99.90;;;;;;5030165;28;20508;-64
2023/02/22 05:53:25;;;;;;;61.45;29.75;;;6.40;99.90;;;;;;5026951;28;20036;-65
2023/02/22 05:55:51;;;;;;;60.38;30.35;;;6.30;99.90;;;;;;5026717;28;20041;-65
2023/02/22 05:58:16;;;;;;;61.15;29.50;;;6.40;99.90;;;;;;5027326;28;20113;-67
2023/02/22 06:00:42;;;;;;;63.00;32.08;;;6.40;99.90;;;;;;5026196;28;20468;-66
2023/02/22 06:03:09;;;;;;;56.00;30.10;;;6.40;99.90;;;;;;5026904;28;20029;-66
2023/02/22 06:05:36;;;;;;;60.50;31.55;;;6.40;99.90;;;;;;5028993;28;20680;-66
2023/02/22 06:08:02;;;;;;;;;;;6.30;99.90;;;;;;5029134;28;20108;-64
2023/02/22 06:10:28;;;;;;;61.88;28.98;;;6.20;99.90;;;;;;5028542;28;19932;-67
2023/02/22 06:12:54;;;;;;;62.20;30.70;;;6.30;99.90;;;;;;5026001;28;20501;-68
2023/02/22 06:15:21;;;;;;;63.40;31.15;;;6.30;99.90;;;;;;5027254;28;20288;-66
2023/02/22 06:17:47;;;;;;;61.83;31.23;;;6.20;99.90;;;;;;5028246;28;20060;-68
2023/02/22 06:20:17;;;;;;;63.33;32.85;;;6.50;99.90;;;;;;5031263;28;20036;-66
2023/02/22 06:22:43;;;;;;;61.00;30.90;;;6.40;99.90;;;;;;5026257;28;20111;-67
2023/02/22 06:25:12;;;;;;;62.92;32.10;;;6.40;99.90;;;;;;5026425;28;20029;-67
2023/02/22 06:27:37;;;;;;;59.88;29.35;;;6.40;99.90;;;;;;5027444;28;20068;-67
2023/02/22 06:30:04;;;;;;;60.47;30.73;;;6.50;99.90;;;;;;5026561;28;20037;-67
2023/02/22 06:32:30;;;;;;;65.82;29.17;;;6.60;99.90;;;;;;5028175;28;20032;-66
2023/02/22 06:34:56;;;;;;;;;;;6.50;99.90;;;;;;5031256;28;20043;-64
2023/02/22 06:37:21;;;;;;;60.30;31.30;;;6.60;99.90;;;;;;5027881;28;19917;-66
2023/02/22 06:39:47;;;;;;;55.97;30.77;;;6.50;99.90;;;;;;5026226;28;20025;-62
2023/02/22 06:42:12;;;;;;;62.03;31.80;;;6.50;99.90;;;;;;5026317;28;20076;-66
2023/02/22 06:44:38;;;;;;;61.70;31.13;;;6.60;99.90;;;;;;5025387;28;20031;-61
2023/02/22 06:47:04;;;;;;;68.03;29.93;;;6.50;99.90;;;;;;5028834;28;20035;-61
2023/02/22 06:49:29;;;;;;;62.63;32.60;;;6.40;99.90;;;;;;5026466;28;20120;-65
2023/02/22 06:51:55;;;;;;;61.17;31.07;;;6.50;99.90;;;;;;5031027;28;20136;-67
2023/02/22 06:54:21;;;;;;;55.05;29.77;;;6.50;99.90;;;;;;5028755;28;20087;-68
2023/02/22 06:56:48;;;;;;;64.57;31.30;;;6.60;99.90;;;;;;5026710;28;20464;-67
2023/02/22 06:59:14;;;;;;;65.78;31.58;;;6.70;99.90;;;;;;5024590;28;20074;-68
2023/02/22 07:01:40;;;;;;;57.33;29.58;;;6.70;99.90;;;;;;5025810;28;20041;-67
2023/02/22 07:04:06;;;;;;;;;;;6.80;99.90;;;;;;5029573;28;20562;-66
2023/02/22 07:06:32;;;;;;;60.72;30.98;;;7.00;99.90;;;;;;5028082;28;19913;-65
2023/02/22 07:08:57;;;;;;;76.40;33.33;;;7.00;99.90;;;;;;5027712;28;20029;-66
2023/02/22 07:11:24;;;;;;;62.43;32.30;;;7.00;99.90;;;;;;5026780;28;20874;-62
2023/02/22 07:13:49;;;;;;;77.82;35.95;;;7.10;99.90;;;;;;5025114;28;20056;-62
2023/02/22 07:16:15;;;;;;;91.20;38.40;;;7.00;99.90;;;;;;5022263;28;20105;-65
2023/02/22 07:18:40;;;;;;;93.03;42.77;;;7.10;99.90;;;;;;5020496;28;20493;-61
2023/02/22 07:21:06;;;;;;;91.57;40.03;;;7.20;99.90;;;;;;5023703;28;20816;-64
2023/02/22 07:23:32;;;;;;;90.55;39.92;;;7.20;99.90;;;;;;5018732;28;20029;-65
2023/02/22 07:26:02;;;;;;;95.97;35.20;;;7.20;99.90;;;;;;5025284;28;20018;-65
2023/02/22 07:28:28;;;;;;;81.40;35.92;;;7.20;99.90;;;;;;5027133;28;20367;-63
2023/02/22 07:30:53;;;;;;;80.70;32.27;;;7.30;99.90;;;;;;5026981;28;20041;-63
2023/02/22 07:33:19;;;;;;;77.13;32.27;;;7.30;99.90;;;;;;5028454;28;20037;-63
2023/02/22 07:35:47;;;;;;;64.55;30.95;;;7.40;99.90;;;;;;5022406;28;20042;-63
2023/02/22 07:38:15;;;;;;;67.55;32.08;;;7.50;99.90;;;;;;5026133;28;20037;-67
2023/02/22 07:40:42;;;;;;;64.75;33.47;;;7.50;99.90;;;;;;5023360;28;20080;-68
2023/02/22 07:43:21;;;;;;;84.28;34.13;;;7.40;99.90;;;;;;5023058;28;20474;-68
2023/02/22 07:45:48;;;;;;;72.93;33.05;;;7.40;99.90;;;;;;5023341;28;20107;-63
2023/02/22 07:48:15;;;;;;;74.47;30.92;;;7.40;99.90;;;;;;5024733;28;21583;-63
2023/02/22 07:50:41;;;;;;;67.22;33.17;;;7.50;99.90;;;;;;5020141;28;20021;-64
2023/02/22 07:53:15;;;;;;;65.93;30.83;;;7.50;99.90;;;;;;5027920;28;20037;-62
2023/02/22 07:55:40;;;;;;;67.47;31.90;;;7.60;99.90;;;;;;5028932;28;20086;-66
2023/02/22 07:58:07;;;;;;;64.83;32.17;;;7.70;99.90;;;;;;5027456;28;20165;-69
2023/02/22 08:00:38;;;;;;;60.08;30.45;;;7.80;99.90;;;;;;5028087;28;20044;-64
2023/02/22 08:03:07;;;;;;;62.40;29.02;;;8.00;99.90;;;;;;5025771;28;20076;-69
2023/02/22 08:05:34;;;;;;;62.67;30.52;;;8.10;99.90;;;;;;5029499;28;20040;-69
2023/02/22 08:08:01;;;;;;;68.18;31.35;;;8.20;99.90;;;;;;5031637;28;20405;-66
2023/02/22 08:10:27;;;;;;;61.88;29.95;;;8.20;99.90;;;;;;5032358;28;20481;-63
2023/02/22 08:12:53;;;;;;;57.90;30.80;;;8.40;99.90;;;;;;5029910;28;20453;-68
2023/02/22 08:15:29;;;;;;;64.20;31.30;;;8.40;99.90;;;;;;5026773;28;20029;-66
2023/02/22 08:17:55;;;;;;;63.50;30.88;;;8.50;99.90;;;;;;5028664;28;20037;-68
2023/02/22 08:20:21;;;;;;;;;;;8.60;99.90;;;;;;5032444;28;20061;-67
2023/02/22 08:22:47;;;;;;;74.75;31.60;;;8.80;99.90;;;;;;5033904;28;20726;-69
2023/02/22 08:25:14;;;;;;;63.27;32.50;;;8.90;99.90;;;;;;5029167;28;20053;-62
2023/02/22 08:27:40;;;;;;;80.72;34.67;;;9.00;99.90;;;;;;5030295;28;20029;-66
2023/02/22 08:30:07;;;;;;;77.43;35.50;;;9.20;99.90;;;;;;5032131;28;20021;-68
2023/02/22 08:32:34;;;;;;;;;;;9.20;99.90;;;;;;5029896;28;20034;-62
2023/02/22 08:35:00;;;;;;;78.63;34.13;;;9.30;99.90;;;;;;5030085;28;19916;-68
2023/02/22 08:37:26;;;;;;;;;;;9.30;99.90;;;;;;5026692;28;20540;-69
2023/02/22 08:39:52;;;;;;;70.55;30.73;;;9.40;99.90;;;;;;5035914;28;20008;-67
2023/02/22 08:42:18;;;;;;;80.88;31.60;;;9.40;99.90;;;;;;5029522;28;20029;-62
2023/02/22 08:44:44;;;;;;;72.03;31.37;;;9.30;99.90;;;;;;5030927;28;20038;-66
2023/02/22 08:47:09;;;;;;;74.63;32.00;;;9.30;99.90;;;;;;5029947;28;20041;-63
2023/02/22 08:49:35;;;;;;;89.87;33.57;;;9.30;99.90;;;;;;5030109;28;20025;-65
2023/02/22 08:52:01;;;;;;;73.17;30.27;;;9.40;99.90;;;;;;5028493;28;20272;-63
2023/02/22 08:54:26;;;;;;;61.63;28.47;;;9.40;99.90;;;;;;5022069;28;20046;-65
2023/02/22 08:56:52;;;;;;;81.70;33.07;;;9.40;99.90;;;;;;5029149;28;20132;-65
2023/02/22 08:59:17;;;;;;;78.07;31.43;;;9.40;99.90;;;;;;5033678;28;20032;-61
2023/02/22 09:01:43;;;;;;;70.07;28.97;;;9.60;99.90;;;;;;5026856;28;20041;-68
2023/02/22 09:04:09;;;;;;;60.10;29.97;;;9.60;99.90;;;;;;5031067;28;20079;-69
2023/02/22 09:06:35;;;;;;;61.47;27.70;;;9.70;99.90;;;;;;5060482;28;20383;-69
2023/02/22 09:09:00;;;;;;;52.70;24.60;;;9.80;99.90;;;;;;5027930;28;20048;-62
2023/02/22 09:11:27;;;;;;;60.50;27.65;;;10.10;99.90;;;;;;5026939;28;20039;-69
2023/02/22 09:13:52;;;;;;;50.83;27.15;;;10.20;99.90;;;;;;5027228;28;20037;-69
2023/02/22 09:16:18;;;;;;;32.20;18.53;;;10.40;99.90;;;;;;5027689;28;20056;-68
2023/02/22 09:18:44;;;;;;;28.70;18.57;;;10.60;99.90;;;;;;5027834;28;20037;-64
2023/02/22 09:21:10;;;;;;;39.80;17.93;;;10.70;99.90;;;;;;5033666;28;20551;-67
2023/02/22 09:23:36;;;;;;;;;;;10.80;99.90;;;;;;5030698;28;20021;-66
2023/02/22 09:26:01;;;;;;;31.35;16.27;;;10.90;99.90;;;;;;5028517;28;19913;-66
2023/02/22 09:28:27;;;;;;;30.10;17.13;;;11.00;99.90;;;;;;5030509;28;20052;-62
2023/02/22 09:30:54;;;;;;;31.03;16.60;;;11.10;99.90;;;;;;5031898;28;20835;-67
2023/02/22 09:33:21;;;;;;;27.48;15.88;;;11.10;99.90;;;;;;5030104;28;20037;-67
2023/02/22 09:35:48;;;;;;;36.83;17.63;;;11.30;99.90;;;;;;5030475;28;20065;-67
2023/02/22 09:38:17;;;;;;;35.42;16.83;;;11.30;99.90;;;;;;5032140;28;20056;-68
2023/02/22 09:41:19;;;;;;;34.25;16.98;;;11.40;99.90;;;;;;5027681;28;20563;-68
2023/02/22 09:43:51;;;;;;;26.02;14.98;;;11.50;99.90;;;;;;5029617;28;20449;-69
2023/02/22 09:46:33;;;;;;;25.10;14.02;;;11.60;99.90;;;;;;5030461;28;20058;-67
2023/02/22 09:49:20;;;;;;;23.13;14.70;;;11.60;99.90;;;;;;5025826;28;20025;-67
2023/02/22 09:51:58;;;;;;;28.65;14.57;;;11.70;99.90;;;;;;5027042;28;20029;-69
2023/02/22 09:54:43;;;;;;;26.20;15.25;;;11.80;99.90;;;;;;5025973;28;20034;-69
2023/02/22 09:57:18;;;;;;;26.33;14.00;;;11.90;99.90;;;;;;5028125;28;20049;-69
2023/02/22 09:59:59;;;;;;;22.83;13.50;;;12.00;99.90;;;;;;5026539;28;20106;-68
2023/02/22 10:02:33;;;;;;;28.70;13.80;;;12.00;99.90;;;;;;5031988;28;20465;-69
2023/02/22 10:05:18;;;;;;;21.65;12.85;;;12.10;99.90;;;;;;5028233;28;20121;-69
2023/02/22 10:07:58;;;;;;;21.25;12.13;;;12.20;99.90;;;;;;5033105;28;20517;-68
2023/02/22 10:10:32;;;;;;;17.90;11.48;;;12.20;99.90;;;;;;5029050;28;20104;-70
2023/02/22 10:13:12;;;;;;;19.55;11.15;;;12.20;99.90;;;;;;5027014;28;20453;-66
2023/02/22 10:16:17;;;;;;;20.33;11.60;;;12.30;99.90;;;;;;5025942;28;20657;-63
2023/02/22 10:18:53;;;;;;;23.73;11.77;;;12.30;99.90;;;;;;5024819;28;20036;-68
2023/02/22 10:21:25;;;;;;;24.35;11.65;;;12.40;99.90;;;;;;5028345;28;20448;-69
2023/02/22 10:24:26;;;;;;;18.10;11.02;;;12.50;99.90;;;;;;5026133;28;20120;-70
2023/02/22 10:26:54;;;;;;;20.77;10.98;;;12.60;99.90;;;;;;5010134;28;20247;-64
2023/02/22 10:29:40;;;;;;;19.10;11.43;;;12.70;99.90;;;;;;5023046;28;20712;-70
2023/02/22 10:32:13;;;;;;;19.67;10.38;;;12.70;99.90;;;;;;5023771;28;20791;-70
2023/02/22 10:34:47;;;;;;;19.90;11.27;;;12.70;99.90;;;;;;5028424;28;20433;-67
2023/02/22 10:37:27;;;;;;;20.42;10.27;;;12.60;99.90;;;;;;5031794;28;20045;-63
2023/02/22 10:40:11;;;;;;;27.77;10.38;;;12.70;99.90;;;;;;5031317;28;20036;-67
2023/02/22 10:42:37;;;;;;;21.75;9.57;;;12.80;99.90;;;;;;5026076;28;20085;-67
2023/02/22 10:45:03;;;;;;;17.57;9.47;;;12.80;99.90;;;;;;5025171;28;20053;-70
2023/02/22 10:47:29;;;;;;;19.83;9.27;;;12.90;99.90;;;;;;5023958;28;20022;-70
2023/02/22 10:49:57;;;;;;;16.03;9.50;;;12.80;99.90;;;;;;5031410;28;20048;-70
2023/02/22 10:52:28;;;;;;;15.73;8.63;;;12.90;99.90;;;;;;5029203;28;20037;-67
2023/02/22 10:54:56;;;;;;;15.55;9.57;;;12.70;99.90;;;;;;5027316;28;20091;-70
2023/02/22 10:57:26;;;;;;;16.83;9.50;;;12.50;99.90;;;;;;5027792;28;20071;-68
2023/02/22 10:59:55;;;;;;;20.20;10.55;;;12.50;99.90;;;;;;5027778;28;20036;-65
2023/02/22 11:02:27;;;;;;;21.48;9.68;;;12.50;99.90;;;;;;5025969;28;20029;-71
2023/02/22 11:04:56;;;;;;;18.70;10.35;;;12.50;99.90;;;;;;5023684;28;20029;-71
2023/02/22 11:07:28;;;;;;;19.58;10.70;;;12.40;99.90;;;;;;5025504;28;20033;-71
2023/02/22 11:09:58;;;;;;;14.80;9.48;;;12.30;99.90;;;;;;5026581;28;20038;-69
2023/02/22 11:12:36;;;;;;;19.20;9.02;;;12.30;99.90;;;;;;5022970;28;20403;-70
2023/02/22 11:15:17;;;;;;;12.82;8.38;;;12.30;99.90;;;;;;5026186;28;20084;-70
2023/02/22 11:17:46;;;;;;;17.77;8.93;;;12.30;99.90;;;;;;5023910;28;20056;-70
2023/02/22 11:20:33;;;;;;;20.73;9.57;;;12.30;99.90;;;;;;5025969;28;20033;-66
2023/02/22 11:23:00;;;;;;;17.80;9.23;;;12.30;99.90;;;;;;5020427;28;20040;-70
2023/02/22 11:25:31;;;;;;;23.80;10.05;;;12.30;99.90;;;;;;5028732;28;20040;-69
2023/02/22 11:28:29;;;;;;;22.45;9.73;;;12.30;99.90;;;;;;5027949;28;20040;-71
2023/02/22 11:30:57;;;;;;;16.80;9.77;;;12.30;99.90;;;;;;5029672;28;20094;-68
2023/02/22 11:33:28;;;;;;;16.17;8.88;;;12.30;99.90;;;;;;5029574;28;20029;-68
2023/02/22 11:35:53;;;;;;;16.98;9.48;;;12.20;99.90;;;;;;5031262;28;20034;-67
2023/02/22 11:38:23;;;;;;;23.30;11.63;;;12.10;99.90;;;;;;5031220;28;20030;-71
2023/02/22 11:41:07;;;;;;;19.48;9.32;;;12.10;99.90;;;;;;5027063;28;20052;-66
2023/02/22 11:43:33;;;;;;;18.70;9.07;;;12.10;99.90;;;;;;5028811;28;20661;-66
2023/02/22 11:46:18;;;;;;;21.13;9.45;;;12.00;99.90;;;;;;5034568;28;20068;-69
2023/02/22 11:49:05;;;;;;;16.83;10.13;;;12.00;99.90;;;;;;5026579;28;20037;-69
2023/02/22 11:51:51;;;;;;;20.80;9.63;;;12.00;99.90;;;;;;5026398;28;20020;-66
2023/02/22 11:54:45;;;;;;;20.67;9.93;;;12.00;99.90;;;;;;5031460;28;20287;-69
2023/02/22 11:57:36;;;;;;;19.23;10.55;;;12.00;99.90;;;;;;5028975;28;20040;-68
2023/02/22 12:00:14;;;;;;;19.23;10.38;;;11.90;99.90;;;;;;5026201;28;20041;-70
2023/02/22 12:03:10;;;;;;;17.20;10.10;;;11.90;99.90;;;;;;5030683;28;20103;-69
2023/02/22 12:06:05;;;;;;;18.30;10.27;;;12.00;99.90;;;;;;5031171;28;20044;-69
2023/02/22 12:08:49;;;;;;;18.13;10.15;;;11.90;99.90;;;;;;5027571;28;20042;-68
2023/02/22 12:11:36;;;;;;;14.65;9.55;;;12.00;99.90;;;;;;5028610;28;20079;-69
2023/02/22 12:14:22;;;;;;;20.20;11.07;;;12.00;99.90;;;;;;5029634;28;20079;-70
2023/02/22 12:17:18;;;;;;;20.65;10.20;;;12.00;99.90;;;;;;5026072;28;20049;-69
2023/02/22 12:19:53;;;;;;;18.35;10.20;;;12.00;99.90;;;;;;5026733;28;20199;-71
2023/02/22 12:22:24;;;;;;;17.67;10.02;;;12.00;99.90;;;;;;5026454;28;20398;-70
2023/02/22 12:25:14;;;;;;;20.50;11.95;;;12.00;99.90;;;;;;5026160;28;20030;-65
2023/02/22 12:27:48;;;;;;;19.00;9.88;;;12.10;99.90;;;;;;5027108;28;20120;-68
2023/02/22 12:30:37;;;;;;;15.40;10.27;;;12.10;99.90;;;;;;5021991;28;20104;-69
2023/02/22 12:33:12;;;;;;;20.05;10.63;;;12.10;99.90;;;;;;5029198;28;20033;-69
2023/02/22 12:35:44;;;;;;;19.92;11.23;;;12.10;99.90;;;;;;5025993;28;20039;-68
2023/02/22 12:38:36;;;;;;;24.15;10.63;;;12.10;99.90;;;;;;5026060;28;20453;-70
2023/02/22 12:41:33;;;;;;;21.77;11.15;;;12.10;99.90;;;;;;5028171;28;20045;-68
2023/02/22 12:44:05;;;;;;;17.05;10.07;;;12.10;99.90;;;;;;5027577;28;20029;-65
2023/02/22 12:46:45;;;;;;;19.15;10.93;;;12.10;99.90;;;;;;5026774;28;20041;-65
2023/02/22 12:49:31;;;;;;;23.35;10.60;;;12.10;99.90;;;;;;5028274;28;20405;-69
2023/02/22 12:52:09;;;;;;;19.67;10.38;;;12.10;99.90;;;;;;5027277;28;20033;-68
2023/02/22 12:54:40;;;;;;;22.73;10.45;;;12.10;99.90;;;;;;5030496;28;20083;-67
2023/02/22 12:57:27;;;;;;;21.23;10.00;;;12.10;99.90;;;;;;5029719;28;20075;-69
2023/02/22 12:59:59;;;;;;;20.92;11.13;;;12.10;99.90;;;;;;5031562;28;20035;-67